sensor_id;sensor_type;location;lat;lon;timestamp;P1;durP1;ratioP1;P2;durP2;ratioP2
24859;SDS011;12936;52.006;4.350;2023-02-15T00:01:05;69.60;;;41.30;;
24859;SDS011;12936;52.006;4.350;2023-02-15T00:03:34;69.97;;;40.63;;
24859;SDS011;12936;52.006;4.350;2023-02-15T00:06:02;72.93;;;40.90;;
24859;SDS011;12936;52.006;4.350;2023-02-15T00:08:31;70.60;;;41.80;;
24859;SDS011;12936;52.006;4.350;2023-02-15T00:11:03;70.77;;;40.67;;
24859;SDS011;12936;52.006;4.350;2023-02-15T00:13:32;73.27;;;41.13;;
24859;SDS011;12936;52.006;4.350;2023-02-15T00:16:03;70.67;;;41.47;;
24859;SDS011;12936;52.006;4.350;2023-02-15T00:18:34;70.47;;;42.10;;
24859;SDS011;12936;52.006;4.350;2023-02-15T00:21:06;71.90;;;41.13;;
24859;SDS011;12936;52.006;4.350;2023-02-15T00:23:35;67.80;;;38.50;;
24859;SDS011;12936;52.006;4.350;2023-02-15T00:26:04;74.43;;;40.70;;
24859;SDS011;12936;52.006;4.350;2023-02-15T00:28:33;73.20;;;41.97;;
24859;SDS011;12936;52.006;4.350;2023-02-15T00:31:06;68.87;;;41.07;;
24859;SDS011;12936;52.006;4.350;2023-02-15T00:33:36;70.57;;;41.20;;
24859;SDS011;12936;52.006;4.350;2023-02-15T00:36:05;69.23;;;40.67;;
24859;SDS011;12936;52.006;4.350;2023-02-15T00:38:36;69.83;;;40.27;;
24859;SDS011;12936;52.006;4.350;2023-02-15T00:41:05;78.03;;;42.87;;
24859;SDS011;12936;52.006;4.350;2023-02-15T00:43:35;73.87;;;41.73;;
24859;SDS011;12936;52.006;4.350;2023-02-15T00:46:06;68.30;;;40.63;;
24859;SDS011;12936;52.006;4.350;2023-02-15T00:48:34;75.07;;;40.77;;
24859;SDS011;12936;52.006;4.350;2023-02-15T00:51:02;76.23;;;41.43;;
24859;SDS011;12936;52.006;4.350;2023-02-15T00:53:30;74.43;;;40.73;;
24859;SDS011;12936;52.006;4.350;2023-02-15T00:55:58;73.33;;;42.37;;
24859;SDS011;12936;52.006;4.350;2023-02-15T00:58:27;74.07;;;42.50;;
24859;SDS011;12936;52.006;4.350;2023-02-15T01:00:55;81.57;;;43.47;;
24859;SDS011;12936;52.006;4.350;2023-02-15T01:03:32;81.47;;;43.97;;
24859;SDS011;12936;52.006;4.350;2023-02-15T01:06:00;76.40;;;43.07;;
24859;SDS011;12936;52.006;4.350;2023-02-15T01:08:29;73.63;;;42.90;;
24859;SDS011;12936;52.006;4.350;2023-02-15T01:11:02;72.77;;;43.07;;
24859;SDS011;12936;52.006;4.350;2023-02-15T01:13:32;68.77;;;43.33;;
24859;SDS011;12936;52.006;4.350;2023-02-15T01:16:01;70.27;;;40.13;;
24859;SDS011;12936;52.006;4.350;2023-02-15T01:18:31;68.73;;;40.00;;
24859;SDS011;12936;52.006;4.350;2023-02-15T01:21:00;68.63;;;40.17;;
24859;SDS011;12936;52.006;4.350;2023-02-15T01:23:36;71.10;;;38.90;;
24859;SDS011;12936;52.006;4.350;2023-02-15T01:26:04;75.10;;;41.00;;
24859;SDS011;12936;52.006;4.350;2023-02-15T01:28:32;74.83;;;41.30;;
24859;SDS011;12936;52.006;4.350;2023-02-15T01:31:04;74.43;;;41.10;;
24859;SDS011;12936;52.006;4.350;2023-02-15T01:33:34;69.93;;;41.40;;
24859;SDS011;12936;52.006;4.350;2023-02-15T01:36:03;69.73;;;39.27;;
24859;SDS011;12936;52.006;4.350;2023-02-15T01:38:32;66.73;;;38.50;;
24859;SDS011;12936;52.006;4.350;2023-02-15T01:41:02;74.37;;;39.97;;
24859;SDS011;12936;52.006;4.350;2023-02-15T01:43:50;69.97;;;41.00;;
24859;SDS011;12936;52.006;4.350;2023-02-15T01:46:26;70.40;;;40.00;;
24859;SDS011;12936;52.006;4.350;2023-02-15T01:49:02;66.37;;;38.83;;
24859;SDS011;12936;52.006;4.350;2023-02-15T01:51:35;70.30;;;40.63;;
24859;SDS011;12936;52.006;4.350;2023-02-15T01:54:07;66.57;;;39.17;;
24859;SDS011;12936;52.006;4.350;2023-02-15T01:56:42;68.23;;;40.77;;
24859;SDS011;12936;52.006;4.350;2023-02-15T01:59:13;72.57;;;39.20;;
24859;SDS011;12936;52.006;4.350;2023-02-15T02:01:46;66.43;;;38.50;;
24859;SDS011;12936;52.006;4.350;2023-02-15T02:04:18;73.30;;;40.37;;
24859;SDS011;12936;52.006;4.350;2023-02-15T02:06:52;64.33;;;38.57;;
24859;SDS011;12936;52.006;4.350;2023-02-15T02:09:22;71.93;;;38.63;;
24859;SDS011;12936;52.006;4.350;2023-02-15T02:11:50;64.67;;;39.17;;
24859;SDS011;12936;52.006;4.350;2023-02-15T02:14:20;68.40;;;38.57;;
24859;SDS011;12936;52.006;4.350;2023-02-15T02:16:53;62.60;;;37.13;;
24859;SDS011;12936;52.006;4.350;2023-02-15T02:19:43;68.77;;;39.43;;
24859;SDS011;12936;52.006;4.350;2023-02-15T02:22:39;67.60;;;36.43;;
24859;SDS011;12936;52.006;4.350;2023-02-15T02:25:43;65.07;;;37.63;;
24859;SDS011;12936;52.006;4.350;2023-02-15T02:28:48;63.47;;;37.07;;
24859;SDS011;12936;52.006;4.350;2023-02-15T02:34:40;66.50;;;37.37;;
24859;SDS011;12936;52.006;4.350;2023-02-15T02:37:16;67.17;;;38.73;;
24859;SDS011;12936;52.006;4.350;2023-02-15T02:39:52;69.47;;;39.20;;
24859;SDS011;12936;52.006;4.350;2023-02-15T02:42:25;69.63;;;37.80;;
24859;SDS011;12936;52.006;4.350;2023-02-15T02:44:59;62.63;;;37.27;;
24859;SDS011;12936;52.006;4.350;2023-02-15T02:47:33;62.73;;;37.33;;
24859;SDS011;12936;52.006;4.350;2023-02-15T02:50:08;65.13;;;36.40;;
24859;SDS011;12936;52.006;4.350;2023-02-15T02:52:40;64.70;;;37.10;;
24859;SDS011;12936;52.006;4.350;2023-02-15T02:55:12;64.63;;;36.50;;
24859;SDS011;12936;52.006;4.350;2023-02-15T02:57:44;58.70;;;35.70;;
24859;SDS011;12936;52.006;4.350;2023-02-15T03:00:18;58.13;;;36.50;;
24859;SDS011;12936;52.006;4.350;2023-02-15T03:02:49;62.27;;;36.80;;
24859;SDS011;12936;52.006;4.350;2023-02-15T03:05:25;64.53;;;37.20;;
24859;SDS011;12936;52.006;4.350;2023-02-15T03:07:58;63.57;;;36.40;;
24859;SDS011;12936;52.006;4.350;2023-02-15T03:10:32;60.73;;;35.97;;
24859;SDS011;12936;52.006;4.350;2023-02-15T03:13:04;64.70;;;38.00;;
24859;SDS011;12936;52.006;4.350;2023-02-15T03:15:43;63.63;;;37.43;;
24859;SDS011;12936;52.006;4.350;2023-02-15T03:18:32;60.07;;;35.87;;
24859;SDS011;12936;52.006;4.350;2023-02-15T03:21:07;62.40;;;35.90;;
24859;SDS011;12936;52.006;4.350;2023-02-15T03:23:50;64.27;;;36.70;;
24859;SDS011;12936;52.006;4.350;2023-02-15T03:26:21;60.03;;;35.50;;
24859;SDS011;12936;52.006;4.350;2023-02-15T03:28:56;66.87;;;36.63;;
24859;SDS011;12936;52.006;4.350;2023-02-15T03:31:31;67.20;;;37.50;;
24859;SDS011;12936;52.006;4.350;2023-02-15T03:34:04;65.37;;;36.93;;
24859;SDS011;12936;52.006;4.350;2023-02-15T03:36:41;65.37;;;36.50;;
24859;SDS011;12936;52.006;4.350;2023-02-15T03:39:18;66.70;;;36.17;;
24859;SDS011;12936;52.006;4.350;2023-02-15T03:41:58;63.77;;;36.47;;
24859;SDS011;12936;52.006;4.350;2023-02-15T03:44:36;62.57;;;35.93;;
24859;SDS011;12936;52.006;4.350;2023-02-15T03:47:36;66.30;;;38.03;;
24859;SDS011;12936;52.006;4.350;2023-02-15T03:50:08;60.40;;;36.67;;
24859;SDS011;12936;52.006;4.350;2023-02-15T03:52:57;59.83;;;34.90;;
24859;SDS011;12936;52.006;4.350;2023-02-15T03:55:27;62.87;;;36.60;;
24859;SDS011;12936;52.006;4.350;2023-02-15T03:57:55;65.60;;;35.83;;
24859;SDS011;12936;52.006;4.350;2023-02-15T04:00:42;61.57;;;36.00;;
24859;SDS011;12936;52.006;4.350;2023-02-15T04:03:35;60.90;;;36.20;;
24859;SDS011;12936;52.006;4.350;2023-02-15T04:06:06;58.60;;;36.23;;
24859;SDS011;12936;52.006;4.350;2023-02-15T04:08:37;60.63;;;35.27;;
24859;SDS011;12936;52.006;4.350;2023-02-15T04:11:23;61.70;;;34.43;;
24859;SDS011;12936;52.006;4.350;2023-02-15T04:13:51;62.43;;;35.90;;
24859;SDS011;12936;52.006;4.350;2023-02-15T04:16:23;57.93;;;34.73;;
24859;SDS011;12936;52.006;4.350;2023-02-15T04:18:50;59.50;;;34.83;;
24859;SDS011;12936;52.006;4.350;2023-02-15T04:21:36;65.07;;;36.33;;
24859;SDS011;12936;52.006;4.350;2023-02-15T04:24:43;62.43;;;35.20;;
24859;SDS011;12936;52.006;4.350;2023-02-15T04:27:49;59.93;;;34.10;;
24859;SDS011;12936;52.006;4.350;2023-02-15T04:30:20;61.23;;;35.00;;
24859;SDS011;12936;52.006;4.350;2023-02-15T04:32:50;59.10;;;36.10;;
24859;SDS011;12936;52.006;4.350;2023-02-15T04:35:19;58.03;;;34.97;;
24859;SDS011;12936;52.006;4.350;2023-02-15T04:37:47;58.10;;;33.43;;
24859;SDS011;12936;52.006;4.350;2023-02-15T04:40:16;64.47;;;35.30;;
24859;SDS011;12936;52.006;4.350;2023-02-15T04:42:46;61.30;;;35.03;;
24859;SDS011;12936;52.006;4.350;2023-02-15T04:45:15;61.80;;;35.17;;
24859;SDS011;12936;52.006;4.350;2023-02-15T04:47:45;62.47;;;36.33;;
24859;SDS011;12936;52.006;4.350;2023-02-15T04:50:14;63.07;;;34.63;;
24859;SDS011;12936;52.006;4.350;2023-02-15T04:52:42;65.77;;;35.67;;
24859;SDS011;12936;52.006;4.350;2023-02-15T04:55:13;64.70;;;34.83;;
24859;SDS011;12936;52.006;4.350;2023-02-15T04:57:42;70.23;;;36.10;;
24859;SDS011;12936;52.006;4.350;2023-02-15T05:00:12;61.40;;;35.83;;
24859;SDS011;12936;52.006;4.350;2023-02-15T05:02:43;62.60;;;35.23;;
24859;SDS011;12936;52.006;4.350;2023-02-15T05:05:13;65.17;;;35.83;;
24859;SDS011;12936;52.006;4.350;2023-02-15T05:07:41;62.67;;;35.97;;
24859;SDS011;12936;52.006;4.350;2023-02-15T05:10:09;61.70;;;36.10;;
24859;SDS011;12936;52.006;4.350;2023-02-15T05:12:37;62.57;;;35.53;;
24859;SDS011;12936;52.006;4.350;2023-02-15T05:15:10;66.67;;;35.43;;
24859;SDS011;12936;52.006;4.350;2023-02-15T05:17:38;65.97;;;36.80;;
24859;SDS011;12936;52.006;4.350;2023-02-15T05:20:06;74.43;;;37.17;;
24859;SDS011;12936;52.006;4.350;2023-02-15T05:22:35;64.07;;;36.10;;
24859;SDS011;12936;52.006;4.350;2023-02-15T05:25:05;65.27;;;36.23;;
24859;SDS011;12936;52.006;4.350;2023-02-15T05:27:53;66.53;;;37.10;;
24859;SDS011;12936;52.006;4.350;2023-02-15T05:30:40;61.53;;;36.47;;
24859;SDS011;12936;52.006;4.350;2023-02-15T05:33:10;67.57;;;36.10;;
24859;SDS011;12936;52.006;4.350;2023-02-15T05:35:38;66.17;;;36.97;;
24859;SDS011;12936;52.006;4.350;2023-02-15T05:38:06;64.43;;;35.17;;
24859;SDS011;12936;52.006;4.350;2023-02-15T05:40:34;64.77;;;34.93;;
24859;SDS011;12936;52.006;4.350;2023-02-15T05:43:02;67.10;;;34.60;;
24859;SDS011;12936;52.006;4.350;2023-02-15T05:45:30;63.17;;;36.03;;
24859;SDS011;12936;52.006;4.350;2023-02-15T05:47:59;62.40;;;33.67;;
24859;SDS011;12936;52.006;4.350;2023-02-15T05:50:28;60.30;;;35.20;;
24859;SDS011;12936;52.006;4.350;2023-02-15T05:52:56;68.13;;;35.57;;
24859;SDS011;12936;52.006;4.350;2023-02-15T05:55:24;62.40;;;35.53;;
24859;SDS011;12936;52.006;4.350;2023-02-15T05:57:51;69.43;;;37.87;;
24859;SDS011;12936;52.006;4.350;2023-02-15T06:00:20;62.60;;;35.90;;
24859;SDS011;12936;52.006;4.350;2023-02-15T06:02:48;69.70;;;36.80;;
24859;SDS011;12936;52.006;4.350;2023-02-15T06:05:17;66.53;;;34.47;;
24859;SDS011;12936;52.006;4.350;2023-02-15T06:07:45;64.73;;;35.27;;
24859;SDS011;12936;52.006;4.350;2023-02-15T06:10:13;64.00;;;35.83;;
24859;SDS011;12936;52.006;4.350;2023-02-15T06:12:41;63.57;;;35.77;;
24859;SDS011;12936;52.006;4.350;2023-02-15T06:15:10;61.37;;;34.73;;
24859;SDS011;12936;52.006;4.350;2023-02-15T06:17:40;70.43;;;37.00;;
24859;SDS011;12936;52.006;4.350;2023-02-15T06:20:08;69.20;;;35.73;;
24859;SDS011;12936;52.006;4.350;2023-02-15T06:22:38;64.30;;;37.47;;
24859;SDS011;12936;52.006;4.350;2023-02-15T06:25:06;73.23;;;36.80;;
24859;SDS011;12936;52.006;4.350;2023-02-15T06:27:36;67.20;;;36.37;;
24859;SDS011;12936;52.006;4.350;2023-02-15T06:30:04;69.07;;;36.27;;
24859;SDS011;12936;52.006;4.350;2023-02-15T06:32:33;68.93;;;35.83;;
24859;SDS011;12936;52.006;4.350;2023-02-15T06:35:02;69.13;;;36.43;;
24859;SDS011;12936;52.006;4.350;2023-02-15T06:37:30;66.17;;;35.73;;
24859;SDS011;12936;52.006;4.350;2023-02-15T06:40:00;68.13;;;37.10;;
24859;SDS011;12936;52.006;4.350;2023-02-15T06:42:29;67.73;;;35.33;;
24859;SDS011;12936;52.006;4.350;2023-02-15T06:44:57;69.17;;;34.40;;
24859;SDS011;12936;52.006;4.350;2023-02-15T06:47:26;64.67;;;34.73;;
24859;SDS011;12936;52.006;4.350;2023-02-15T06:49:54;66.80;;;33.57;;
24859;SDS011;12936;52.006;4.350;2023-02-15T06:52:23;66.83;;;35.70;;
24859;SDS011;12936;52.006;4.350;2023-02-15T06:54:51;64.40;;;34.07;;
24859;SDS011;12936;52.006;4.350;2023-02-15T06:57:21;66.80;;;34.33;;
24859;SDS011;12936;52.006;4.350;2023-02-15T06:59:49;64.40;;;34.10;;
24859;SDS011;12936;52.006;4.350;2023-02-15T07:02:18;65.40;;;34.87;;
24859;SDS011;12936;52.006;4.350;2023-02-15T07:04:46;63.97;;;34.50;;
24859;SDS011;12936;52.006;4.350;2023-02-15T07:07:15;62.50;;;34.50;;
24859;SDS011;12936;52.006;4.350;2023-02-15T07:09:43;64.90;;;34.33;;
24859;SDS011;12936;52.006;4.350;2023-02-15T07:12:11;61.53;;;32.67;;
24859;SDS011;12936;52.006;4.350;2023-02-15T07:14:57;68.73;;;35.43;;
24859;SDS011;12936;52.006;4.350;2023-02-15T07:17:25;67.77;;;36.77;;
24859;SDS011;12936;52.006;4.350;2023-02-15T07:20:02;75.90;;;37.80;;
24859;SDS011;12936;52.006;4.350;2023-02-15T07:22:31;70.63;;;36.80;;
24859;SDS011;12936;52.006;4.350;2023-02-15T07:25:02;68.10;;;36.23;;
24859;SDS011;12936;52.006;4.350;2023-02-15T07:27:30;67.50;;;35.00;;
24859;SDS011;12936;52.006;4.350;2023-02-15T07:30:00;62.17;;;35.17;;
24859;SDS011;12936;52.006;4.350;2023-02-15T07:32:28;68.77;;;36.03;;
24859;SDS011;12936;52.006;4.350;2023-02-15T07:34:58;67.57;;;35.80;;
24859;SDS011;12936;52.006;4.350;2023-02-15T07:37:27;70.17;;;37.30;;
24859;SDS011;12936;52.006;4.350;2023-02-15T07:39:55;69.93;;;38.33;;
24859;SDS011;12936;52.006;4.350;2023-02-15T07:42:23;74.80;;;38.23;;
24859;SDS011;12936;52.006;4.350;2023-02-15T07:44:51;70.23;;;36.83;;
24859;SDS011;12936;52.006;4.350;2023-02-15T07:47:21;71.70;;;36.87;;
24859;SDS011;12936;52.006;4.350;2023-02-15T07:49:49;74.13;;;37.90;;
24859;SDS011;12936;52.006;4.350;2023-02-15T07:52:17;66.33;;;36.50;;
24859;SDS011;12936;52.006;4.350;2023-02-15T07:54:45;68.17;;;38.20;;
24859;SDS011;12936;52.006;4.350;2023-02-15T07:57:13;75.17;;;37.20;;
24859;SDS011;12936;52.006;4.350;2023-02-15T07:59:41;66.53;;;37.13;;
24859;SDS011;12936;52.006;4.350;2023-02-15T08:02:09;70.73;;;38.30;;
24859;SDS011;12936;52.006;4.350;2023-02-15T08:04:39;77.47;;;37.77;;
24859;SDS011;12936;52.006;4.350;2023-02-15T08:07:07;75.53;;;38.33;;
24859;SDS011;12936;52.006;4.350;2023-02-15T08:09:35;71.33;;;37.77;;
24859;SDS011;12936;52.006;4.350;2023-02-15T08:12:03;72.77;;;38.97;;
24859;SDS011;12936;52.006;4.350;2023-02-15T08:14:31;68.67;;;39.07;;
24859;SDS011;12936;52.006;4.350;2023-02-15T08:17:00;73.47;;;38.93;;
24859;SDS011;12936;52.006;4.350;2023-02-15T08:19:29;74.67;;;39.73;;
24859;SDS011;12936;52.006;4.350;2023-02-15T08:22:00;70.07;;;39.70;;
24859;SDS011;12936;52.006;4.350;2023-02-15T08:24:31;74.27;;;39.60;;
24859;SDS011;12936;52.006;4.350;2023-02-15T08:27:00;73.20;;;38.43;;
24859;SDS011;12936;52.006;4.350;2023-02-15T08:29:31;82.37;;;41.50;;
24859;SDS011;12936;52.006;4.350;2023-02-15T08:32:01;70.23;;;38.17;;
24859;SDS011;12936;52.006;4.350;2023-02-15T08:34:32;77.90;;;39.97;;
24859;SDS011;12936;52.006;4.350;2023-02-15T08:37:03;77.17;;;41.60;;
24859;SDS011;12936;52.006;4.350;2023-02-15T08:39:32;76.10;;;40.23;;
24859;SDS011;12936;52.006;4.350;2023-02-15T08:42:01;69.63;;;39.80;;
24859;SDS011;12936;52.006;4.350;2023-02-15T08:44:29;75.77;;;41.10;;
24859;SDS011;12936;52.006;4.350;2023-02-15T08:46:57;77.20;;;41.93;;
24859;SDS011;12936;52.006;4.350;2023-02-15T08:49:30;76.53;;;39.97;;
24859;SDS011;12936;52.006;4.350;2023-02-15T08:51:58;73.33;;;39.40;;
24859;SDS011;12936;52.006;4.350;2023-02-15T08:54:28;74.80;;;40.27;;
24859;SDS011;12936;52.006;4.350;2023-02-15T08:56:56;75.67;;;40.57;;
24859;SDS011;12936;52.006;4.350;2023-02-15T08:59:25;71.40;;;41.73;;
24859;SDS011;12936;52.006;4.350;2023-02-15T09:01:53;84.50;;;42.13;;
24859;SDS011;12936;52.006;4.350;2023-02-15T09:04:21;70.10;;;39.33;;
24859;SDS011;12936;52.006;4.350;2023-02-15T09:06:50;75.30;;;40.60;;
24859;SDS011;12936;52.006;4.350;2023-02-15T09:09:18;87.40;;;41.60;;
24859;SDS011;12936;52.006;4.350;2023-02-15T09:11:49;82.50;;;43.07;;
24859;SDS011;12936;52.006;4.350;2023-02-15T09:14:23;89.87;;;42.33;;
24859;SDS011;12936;52.006;4.350;2023-02-15T09:16:53;71.87;;;39.77;;
24859;SDS011;12936;52.006;4.350;2023-02-15T09:19:22;79.30;;;41.37;;
24859;SDS011;12936;52.006;4.350;2023-02-15T09:21:51;78.40;;;41.93;;
24859;SDS011;12936;52.006;4.350;2023-02-15T09:24:19;77.23;;;43.27;;
24859;SDS011;12936;52.006;4.350;2023-02-15T09:26:48;77.23;;;42.43;;
24859;SDS011;12936;52.006;4.350;2023-02-15T09:29:17;76.57;;;42.70;;
24859;SDS011;12936;52.006;4.350;2023-02-15T09:31:46;77.43;;;41.87;;
24859;SDS011;12936;52.006;4.350;2023-02-15T09:34:17;76.93;;;40.30;;
24859;SDS011;12936;52.006;4.350;2023-02-15T09:36:48;73.20;;;41.63;;
24859;SDS011;12936;52.006;4.350;2023-02-15T09:39:17;72.83;;;39.27;;
24859;SDS011;12936;52.006;4.350;2023-02-15T09:41:53;73.47;;;40.20;;
24859;SDS011;12936;52.006;4.350;2023-02-15T09:47:54;69.67;;;39.17;;
24859;SDS011;12936;52.006;4.350;2023-02-15T09:50:43;68.90;;;39.00;;
24859;SDS011;12936;52.006;4.350;2023-02-15T09:53:29;69.20;;;39.83;;
24859;SDS011;12936;52.006;4.350;2023-02-15T09:56:08;72.23;;;38.73;;
24859;SDS011;12936;52.006;4.350;2023-02-15T09:58:45;74.23;;;41.27;;
24859;SDS011;12936;52.006;4.350;2023-02-15T10:01:24;74.53;;;37.40;;
24859;SDS011;12936;52.006;4.350;2023-02-15T10:04:09;71.40;;;37.30;;
24859;SDS011;12936;52.006;4.350;2023-02-15T10:06:52;67.47;;;36.73;;
24859;SDS011;12936;52.006;4.350;2023-02-15T10:09:44;65.33;;;38.20;;
24859;SDS011;12936;52.006;4.350;2023-02-15T10:12:28;62.67;;;37.87;;
24859;SDS011;12936;52.006;4.350;2023-02-15T10:15:11;68.90;;;37.83;;
24859;SDS011;12936;52.006;4.350;2023-02-15T10:17:51;62.47;;;34.73;;
24859;SDS011;12936;52.006;4.350;2023-02-15T10:20:34;72.53;;;35.67;;
24859;SDS011;12936;52.006;4.350;2023-02-15T10:23:17;69.50;;;36.67;;
24859;SDS011;12936;52.006;4.350;2023-02-15T10:25:59;68.73;;;36.17;;
24859;SDS011;12936;52.006;4.350;2023-02-15T10:28:39;64.13;;;36.60;;
24859;SDS011;12936;52.006;4.350;2023-02-15T10:31:14;60.67;;;34.50;;
24859;SDS011;12936;52.006;4.350;2023-02-15T10:33:52;58.33;;;33.37;;
24859;SDS011;12936;52.006;4.350;2023-02-15T10:36:41;66.20;;;36.77;;
24859;SDS011;12936;52.006;4.350;2023-02-15T10:39:28;58.93;;;34.07;;
24859;SDS011;12936;52.006;4.350;2023-02-15T10:42:05;61.47;;;35.57;;
24859;SDS011;12936;52.006;4.350;2023-02-15T10:44:47;66.60;;;35.00;;
24859;SDS011;12936;52.006;4.350;2023-02-15T10:47:34;57.37;;;34.33;;
24859;SDS011;12936;52.006;4.350;2023-02-15T10:50:17;61.63;;;35.00;;
24859;SDS011;12936;52.006;4.350;2023-02-15T10:53:05;65.13;;;35.57;;
24859;SDS011;12936;52.006;4.350;2023-02-15T10:55:47;62.13;;;34.47;;
24859;SDS011;12936;52.006;4.350;2023-02-15T10:58:26;61.30;;;34.57;;
24859;SDS011;12936;52.006;4.350;2023-02-15T11:01:04;57.40;;;33.60;;
24859;SDS011;12936;52.006;4.350;2023-02-15T11:03:46;59.43;;;33.43;;
24859;SDS011;12936;52.006;4.350;2023-02-15T11:06:28;57.00;;;33.30;;
24859;SDS011;12936;52.006;4.350;2023-02-15T11:08:59;61.87;;;33.47;;
24859;SDS011;12936;52.006;4.350;2023-02-15T11:11:30;58.87;;;34.07;;
24859;SDS011;12936;52.006;4.350;2023-02-15T11:14:02;67.60;;;31.97;;
24859;SDS011;12936;52.006;4.350;2023-02-15T11:16:37;58.17;;;31.77;;
24859;SDS011;12936;52.006;4.350;2023-02-15T11:19:12;59.13;;;34.40;;
24859;SDS011;12936;52.006;4.350;2023-02-15T11:21:46;53.73;;;32.07;;
24859;SDS011;12936;52.006;4.350;2023-02-15T11:24:18;61.23;;;33.67;;
24859;SDS011;12936;52.006;4.350;2023-02-15T11:26:48;59.37;;;32.10;;
24859;SDS011;12936;52.006;4.350;2023-02-15T11:29:23;57.90;;;33.73;;
24859;SDS011;12936;52.006;4.350;2023-02-15T11:31:56;63.23;;;34.80;;
24859;SDS011;12936;52.006;4.350;2023-02-15T11:34:32;56.37;;;32.47;;
24859;SDS011;12936;52.006;4.350;2023-02-15T11:37:05;60.00;;;34.60;;
24859;SDS011;12936;52.006;4.350;2023-02-15T11:39:36;54.53;;;30.80;;
24859;SDS011;12936;52.006;4.350;2023-02-15T11:42:04;55.60;;;34.00;;
24859;SDS011;12936;52.006;4.350;2023-02-15T11:44:39;58.00;;;32.53;;
24859;SDS011;12936;52.006;4.350;2023-02-15T11:47:14;55.33;;;30.30;;
24859;SDS011;12936;52.006;4.350;2023-02-15T11:49:44;56.17;;;31.67;;
24859;SDS011;12936;52.006;4.350;2023-02-15T11:52:14;57.30;;;32.43;;
24859;SDS011;12936;52.006;4.350;2023-02-15T11:54:46;56.07;;;32.90;;
24859;SDS011;12936;52.006;4.350;2023-02-15T11:57:17;55.20;;;32.07;;
24859;SDS011;12936;52.006;4.350;2023-02-15T11:59:51;58.27;;;33.47;;
24859;SDS011;12936;52.006;4.350;2023-02-15T12:02:23;51.60;;;31.53;;
24859;SDS011;12936;52.006;4.350;2023-02-15T12:04:55;54.57;;;32.90;;
24859;SDS011;12936;52.006;4.350;2023-02-15T12:07:27;53.70;;;30.93;;
24859;SDS011;12936;52.006;4.350;2023-02-15T12:10:00;56.70;;;31.60;;
24859;SDS011;12936;52.006;4.350;2023-02-15T12:12:33;54.70;;;31.77;;
24859;SDS011;12936;52.006;4.350;2023-02-15T12:15:03;54.30;;;33.17;;
24859;SDS011;12936;52.006;4.350;2023-02-15T12:17:33;53.33;;;31.70;;
24859;SDS011;12936;52.006;4.350;2023-02-15T12:20:21;54.17;;;31.93;;
24859;SDS011;12936;52.006;4.350;2023-02-15T12:22:53;52.83;;;33.50;;
24859;SDS011;12936;52.006;4.350;2023-02-15T12:25:29;55.23;;;32.73;;
24859;SDS011;12936;52.006;4.350;2023-02-15T12:28:03;51.10;;;31.80;;
24859;SDS011;12936;52.006;4.350;2023-02-15T12:30:43;56.60;;;32.90;;
24859;SDS011;12936;52.006;4.350;2023-02-15T12:33:13;52.17;;;31.80;;
24859;SDS011;12936;52.006;4.350;2023-02-15T12:35:54;55.17;;;30.33;;
24859;SDS011;12936;52.006;4.350;2023-02-15T12:38:26;57.67;;;33.10;;
24859;SDS011;12936;52.006;4.350;2023-02-15T12:41:02;55.90;;;32.17;;
24859;SDS011;12936;52.006;4.350;2023-02-15T12:43:32;53.27;;;30.47;;
24859;SDS011;12936;52.006;4.350;2023-02-15T12:49:07;54.10;;;31.23;;
24859;SDS011;12936;52.006;4.350;2023-02-15T12:51:48;53.03;;;30.80;;
24859;SDS011;12936;52.006;4.350;2023-02-15T12:54:22;53.83;;;30.57;;
24859;SDS011;12936;52.006;4.350;2023-02-15T12:56:58;51.93;;;31.30;;
24859;SDS011;12936;52.006;4.350;2023-02-15T12:59:26;53.50;;;31.07;;
24859;SDS011;12936;52.006;4.350;2023-02-15T13:01:54;56.93;;;31.47;;
24859;SDS011;12936;52.006;4.350;2023-02-15T13:04:23;55.50;;;31.70;;
24859;SDS011;12936;52.006;4.350;2023-02-15T13:06:55;58.03;;;32.03;;
24859;SDS011;12936;52.006;4.350;2023-02-15T13:09:34;51.27;;;30.93;;
24859;SDS011;12936;52.006;4.350;2023-02-15T13:12:16;55.87;;;32.50;;
24859;SDS011;12936;52.006;4.350;2023-02-15T13:14:48;55.17;;;32.83;;
24859;SDS011;12936;52.006;4.350;2023-02-15T13:17:19;50.83;;;32.20;;
24859;SDS011;12936;52.006;4.350;2023-02-15T13:19:56;53.97;;;32.03;;
24859;SDS011;12936;52.006;4.350;2023-02-15T13:22:31;56.40;;;32.93;;
24859;SDS011;12936;52.006;4.350;2023-02-15T13:25:08;51.63;;;31.93;;
24859;SDS011;12936;52.006;4.350;2023-02-15T13:27:41;57.17;;;32.93;;
24859;SDS011;12936;52.006;4.350;2023-02-15T13:30:16;54.90;;;32.10;;
24859;SDS011;12936;52.006;4.350;2023-02-15T13:32:54;53.37;;;32.37;;
24859;SDS011;12936;52.006;4.350;2023-02-15T13:35:28;57.47;;;32.90;;
24859;SDS011;12936;52.006;4.350;2023-02-15T13:38:08;58.63;;;33.33;;
24859;SDS011;12936;52.006;4.350;2023-02-15T13:41:00;54.93;;;32.93;;
24859;SDS011;12936;52.006;4.350;2023-02-15T13:43:35;60.50;;;32.17;;
24859;SDS011;12936;52.006;4.350;2023-02-15T13:46:14;56.20;;;32.70;;
24859;SDS011;12936;52.006;4.350;2023-02-15T13:48:52;55.53;;;33.17;;
24859;SDS011;12936;52.006;4.350;2023-02-15T13:51:30;55.30;;;32.73;;
24859;SDS011;12936;52.006;4.350;2023-02-15T13:54:08;60.17;;;34.30;;
24859;SDS011;12936;52.006;4.350;2023-02-15T13:56:56;60.03;;;33.53;;
24859;SDS011;12936;52.006;4.350;2023-02-15T13:59:44;59.00;;;33.07;;
24859;SDS011;12936;52.006;4.350;2023-02-15T14:02:29;53.10;;;31.87;;
24859;SDS011;12936;52.006;4.350;2023-02-15T14:08:05;57.43;;;31.67;;
24859;SDS011;12936;52.006;4.350;2023-02-15T14:10:44;53.70;;;30.93;;
24859;SDS011;12936;52.006;4.350;2023-02-15T14:13:29;54.37;;;31.23;;
24859;SDS011;12936;52.006;4.350;2023-02-15T14:16:20;50.50;;;32.33;;
24859;SDS011;12936;52.006;4.350;2023-02-15T14:19:02;52.40;;;30.60;;
24859;SDS011;12936;52.006;4.350;2023-02-15T14:21:38;52.67;;;31.33;;
24859;SDS011;12936;52.006;4.350;2023-02-15T14:24:14;56.40;;;31.70;;
24859;SDS011;12936;52.006;4.350;2023-02-15T14:26:52;50.90;;;31.13;;
24859;SDS011;12936;52.006;4.350;2023-02-15T14:29:25;55.90;;;31.00;;
24859;SDS011;12936;52.006;4.350;2023-02-15T14:32:07;53.23;;;31.83;;
24859;SDS011;12936;52.006;4.350;2023-02-15T14:34:42;52.63;;;31.50;;
24859;SDS011;12936;52.006;4.350;2023-02-15T14:37:16;53.37;;;32.27;;
24859;SDS011;12936;52.006;4.350;2023-02-15T14:39:51;57.40;;;32.30;;
24859;SDS011;12936;52.006;4.350;2023-02-15T14:42:45;53.70;;;31.97;;
24859;SDS011;12936;52.006;4.350;2023-02-15T14:45:20;49.53;;;30.93;;
24859;SDS011;12936;52.006;4.350;2023-02-15T14:47:55;53.60;;;32.80;;
24859;SDS011;12936;52.006;4.350;2023-02-15T14:50:40;51.73;;;30.43;;
24859;SDS011;12936;52.006;4.350;2023-02-15T14:53:16;52.00;;;30.13;;
24859;SDS011;12936;52.006;4.350;2023-02-15T15:01:50;48.73;;;29.90;;
24859;SDS011;12936;52.006;4.350;2023-02-15T15:04:23;50.00;;;30.30;;
24859;SDS011;12936;52.006;4.350;2023-02-15T15:07:02;54.90;;;31.60;;
24859;SDS011;12936;52.006;4.350;2023-02-15T15:09:36;52.57;;;31.40;;
24859;SDS011;12936;52.006;4.350;2023-02-15T15:12:14;57.57;;;32.93;;
24859;SDS011;12936;52.006;4.350;2023-02-15T15:14:59;51.73;;;31.63;;
24859;SDS011;12936;52.006;4.350;2023-02-15T15:26:29;49.17;;;29.67;;